sensor_id;sensor_type;location;lat;lon;timestamp;pressure;altitude;pressure_sealevel;temperature;humidity
66945;BME280;53853;51.982;5.928;2023-05-24T00:01:31;102385.44;;;10.24;66.00
66945;BME280;53853;51.982;5.928;2023-05-24T00:04:03;102378.28;;;10.24;65.84
66945;BME280;53853;51.982;5.928;2023-05-24T00:06:33;102378.38;;;10.23;65.70
66945;BME280;53853;51.982;5.928;2023-05-24T00:09:03;102373.38;;;10.18;66.44
66945;BME280;53853;51.982;5.928;2023-05-24T00:11:33;102370.72;;;10.18;66.17
66945;BME280;53853;51.982;5.928;2023-05-24T00:14:03;102367.44;;;10.14;66.51
66945;BME280;53853;51.982;5.928;2023-05-24T00:16:35;102371.81;;;10.15;66.56
66945;BME280;53853;51.982;5.928;2023-05-24T00:19:05;102372.03;;;10.12;66.90
66945;BME280;53853;51.982;5.928;2023-05-24T00:21:36;102368.63;;;10.10;67.32
66945;BME280;53853;51.982;5.928;2023-05-24T00:24:06;102368.63;;;10.10;67.18
66945;BME280;53853;51.982;5.928;2023-05-24T00:26:36;102356.16;;;10.11;67.17
66945;BME280;53853;51.982;5.928;2023-05-24T00:29:07;102359.75;;;10.10;67.46
66945;BME280;53853;51.982;5.928;2023-05-24T00:31:41;102347.53;;;10.07;67.35
66945;BME280;53853;51.982;5.928;2023-05-24T00:34:11;102356.69;;;10.03;67.65
66945;BME280;53853;51.982;5.928;2023-05-24T00:36:40;102345.41;;;10.00;67.13
66945;BME280;53853;51.982;5.928;2023-05-24T00:39:10;102341.16;;;9.97;67.44
66945;BME280;53853;51.982;5.928;2023-05-24T00:41:42;102351.06;;;9.95;67.55
66945;BME280;53853;51.982;5.928;2023-05-24T00:44:12;102339.56;;;9.94;67.77
66945;BME280;53853;51.982;5.928;2023-05-24T00:46:45;102350.34;;;9.93;68.16
66945;BME280;53853;51.982;5.928;2023-05-24T00:49:15;102353.00;;;9.93;68.15
66945;BME280;53853;51.982;5.928;2023-05-24T00:51:46;102337.44;;;9.87;68.64
66945;BME280;53853;51.982;5.928;2023-05-24T00:54:16;102340.31;;;9.84;68.50
66945;BME280;53853;51.982;5.928;2023-05-24T00:56:47;102336.91;;;9.82;68.71
66945;BME280;53853;51.982;5.928;2023-05-24T00:59:17;102335.84;;;9.84;68.39
66945;BME280;53853;51.982;5.928;2023-05-24T01:01:49;102327.84;;;9.84;68.05
66945;BME280;53853;51.982;5.928;2023-05-24T01:04:21;102329.78;;;9.82;68.32
66945;BME280;53853;51.982;5.928;2023-05-24T01:07:03;102330.63;;;9.83;68.11
66945;BME280;53853;51.982;5.928;2023-05-24T01:09:50;102331.56;;;9.82;67.98
66945;BME280;53853;51.982;5.928;2023-05-24T01:12:31;102327.22;;;9.81;68.05
66945;BME280;53853;51.982;5.928;2023-05-24T01:15:10;102336.38;;;9.76;68.12
66945;BME280;53853;51.982;5.928;2023-05-24T01:17:57;102333.19;;;9.71;68.40
66945;BME280;53853;51.982;5.928;2023-05-24T01:20:33;102333.19;;;9.71;68.35
66945;BME280;53853;51.982;5.928;2023-05-24T01:26:16;102334.91;;;9.72;68.67
66945;BME280;53853;51.982;5.928;2023-05-24T01:28:50;102333.19;;;9.71;68.75
66945;BME280;53853;51.982;5.928;2023-05-24T01:31:21;102328.19;;;9.67;68.89
66945;BME280;53853;51.982;5.928;2023-05-24T01:33:51;102334.56;;;9.64;69.38
66945;BME280;53853;51.982;5.928;2023-05-24T01:36:21;102331.91;;;9.64;69.36
66945;BME280;53853;51.982;5.928;2023-05-24T01:38:51;102333.81;;;9.62;69.40
66945;BME280;53853;51.982;5.928;2023-05-24T01:41:28;102338.19;;;9.63;69.25
66945;BME280;53853;51.982;5.928;2023-05-24T01:44:12;102341.91;;;9.60;69.78
66945;BME280;53853;51.982;5.928;2023-05-24T01:46:52;102332.56;;;9.55;70.42
66945;BME280;53853;51.982;5.928;2023-05-24T01:49:28;102339.88;;;9.51;70.09
66945;BME280;53853;51.982;5.928;2023-05-24T01:52:02;102339.25;;;9.48;70.77
66945;BME280;53853;51.982;5.928;2023-05-24T01:54:36;102339.56;;;9.43;71.03
66945;BME280;53853;51.982;5.928;2023-05-24T01:57:06;102337.97;;;9.40;70.82
66945;BME280;53853;51.982;5.928;2023-05-24T01:59:42;102336.38;;;9.38;71.07
66945;BME280;53853;51.982;5.928;2023-05-24T02:02:14;102339.16;;;9.36;71.23
66945;BME280;53853;51.982;5.928;2023-05-24T02:04:44;102338.31;;;9.36;70.82
66945;BME280;53853;51.982;5.928;2023-05-24T02:07:14;102336.59;;;9.35;70.62
66945;BME280;53853;51.982;5.928;2023-05-24T02:09:45;102332.09;;;9.35;70.52
66945;BME280;53853;51.982;5.928;2023-05-24T02:12:14;102331.28;;;9.35;70.26
66945;BME280;53853;51.982;5.928;2023-05-24T02:14:47;102327.66;;;9.36;70.03
66945;BME280;53853;51.982;5.928;2023-05-24T02:17:17;102333.81;;;9.36;69.91
66945;BME280;53853;51.982;5.928;2023-05-24T02:19:48;102329.75;;;9.31;70.39
66945;BME280;53853;51.982;5.928;2023-05-24T02:22:18;102335.19;;;9.29;70.43
66945;BME280;53853;51.982;5.928;2023-05-24T02:24:49;102331.69;;;9.29;70.38
66945;BME280;53853;51.982;5.928;2023-05-24T02:27:19;102337.00;;;9.29;70.36
66945;BME280;53853;51.982;5.928;2023-05-24T02:29:51;102334.34;;;9.29;70.65
66945;BME280;53853;51.982;5.928;2023-05-24T02:32:21;102335.19;;;9.29;70.88
66945;BME280;53853;51.982;5.928;2023-05-24T02:34:51;102335.97;;;9.31;70.68
66945;BME280;53853;51.982;5.928;2023-05-24T02:37:21;102328.72;;;9.33;70.60
66945;BME280;53853;51.982;5.928;2023-05-24T02:39:51;102334.13;;;9.32;70.51
66945;BME280;53853;51.982;5.928;2023-05-24T02:42:21;102328.81;;;9.32;70.62
66945;BME280;53853;51.982;5.928;2023-05-24T02:44:53;102340.09;;;9.35;70.73
66945;BME280;53853;51.982;5.928;2023-05-24T02:50:04;102330.31;;;9.36;70.85
66945;BME280;53853;51.982;5.928;2023-05-24T02:52:34;102330.44;;;9.34;70.48
66945;BME280;53853;51.982;5.928;2023-05-24T02:55:05;102330.44;;;9.34;70.18
66945;BME280;53853;51.982;5.928;2023-05-24T02:57:35;102330.53;;;9.33;70.55
66945;BME280;53853;51.982;5.928;2023-05-24T03:00:09;102333.19;;;9.33;70.34
66945;BME280;53853;51.982;5.928;2023-05-24T03:02:41;102331.47;;;9.32;70.79
66945;BME280;53853;51.982;5.928;2023-05-24T03:05:13;102327.09;;;9.31;70.64
66945;BME280;53853;51.982;5.928;2023-05-24T03:07:43;102323.69;;;9.29;71.07
66945;BME280;53853;51.982;5.928;2023-05-24T03:10:13;102323.69;;;9.29;71.13
66945;BME280;53853;51.982;5.928;2023-05-24T03:12:43;102325.84;;;9.23;70.83
66945;BME280;53853;51.982;5.928;2023-05-24T03:15:15;102317.41;;;9.17;71.19
66945;BME280;53853;51.982;5.928;2023-05-24T03:17:46;102319.41;;;9.13;71.60
66945;BME280;53853;51.982;5.928;2023-05-24T03:20:17;102324.63;;;9.15;71.75
66945;BME280;53853;51.982;5.928;2023-05-24T03:22:46;102314.97;;;9.14;72.05
66945;BME280;53853;51.982;5.928;2023-05-24T03:25:16;102311.44;;;9.13;72.05
66945;BME280;53853;51.982;5.928;2023-05-24T03:27:47;102307.09;;;9.12;71.85
66945;BME280;53853;51.982;5.928;2023-05-24T03:30:20;102303.56;;;9.12;72.04
66945;BME280;53853;51.982;5.928;2023-05-24T03:32:55;102304.34;;;9.14;72.19
66945;BME280;53853;51.982;5.928;2023-05-24T03:35:25;102307.84;;;9.14;72.14
66945;BME280;53853;51.982;5.928;2023-05-24T03:37:56;102308.69;;;9.15;72.08
66945;BME280;53853;51.982;5.928;2023-05-24T03:40:28;102311.34;;;9.15;72.46
66945;BME280;53853;51.982;5.928;2023-05-24T03:43:04;102307.00;;;9.14;72.65
66945;BME280;53853;51.982;5.928;2023-05-24T03:45:59;102316.66;;;9.15;72.63
66945;BME280;53853;51.982;5.928;2023-05-24T03:48:29;102315.59;;;9.17;72.47
66945;BME280;53853;51.982;5.928;2023-05-24T03:50:59;102317.41;;;9.17;72.86
66945;BME280;53853;51.982;5.928;2023-05-24T03:53:29;102313.59;;;9.21;72.46
66945;BME280;53853;51.982;5.928;2023-05-24T03:56:00;102301.88;;;9.23;72.51
66945;BME280;53853;51.982;5.928;2023-05-24T03:58:33;102311.44;;;9.26;72.62
66945;BME280;53853;51.982;5.928;2023-05-24T04:01:05;102307.00;;;9.27;72.70
66945;BME280;53853;51.982;5.928;2023-05-24T04:03:35;102308.59;;;9.29;73.03
66945;BME280;53853;51.982;5.928;2023-05-24T04:06:06;102305.72;;;9.32;72.73
66945;BME280;53853;51.982;5.928;2023-05-24T04:08:36;102305.59;;;9.34;72.68
66945;BME280;53853;51.982;5.928;2023-05-24T04:11:06;102303.50;;;9.39;72.98
66945;BME280;53853;51.982;5.928;2023-05-24T04:13:37;102310.41;;;9.41;73.03
66945;BME280;53853;51.982;5.928;2023-05-24T04:16:10;102311.81;;;9.47;72.99
66945;BME280;53853;51.982;5.928;2023-05-24T04:18:40;102311.50;;;9.52;72.70
66945;BME280;53853;51.982;5.928;2023-05-24T04:21:11;102305.28;;;9.51;72.78
66945;BME280;53853;51.982;5.928;2023-05-24T04:23:40;102304.25;;;9.54;72.61
66945;BME280;53853;51.982;5.928;2023-05-24T04:26:10;102309.34;;;9.57;72.62
66945;BME280;53853;51.982;5.928;2023-05-24T04:28:41;102317.97;;;9.60;72.50
66945;BME280;53853;51.982;5.928;2023-05-24T04:31:14;102311.81;;;9.60;72.71
66945;BME280;53853;51.982;5.928;2023-05-24T04:33:44;102316.81;;;9.65;72.35
66945;BME280;53853;51.982;5.928;2023-05-24T04:36:15;102312.94;;;9.69;72.52
66945;BME280;53853;51.982;5.928;2023-05-24T04:38:46;102322.75;;;9.68;72.83
66945;BME280;53853;51.982;5.928;2023-05-24T04:41:16;102327.88;;;9.71;72.95
66945;BME280;53853;51.982;5.928;2023-05-24T04:43:48;102329.13;;;9.78;73.10
66945;BME280;53853;51.982;5.928;2023-05-24T04:46:20;102324.13;;;9.87;73.17
66945;BME280;53853;51.982;5.928;2023-05-24T04:48:50;102321.78;;;9.95;73.14
66945;BME280;53853;51.982;5.928;2023-05-24T04:51:22;102320.56;;;9.99;73.05
66945;BME280;53853;51.982;5.928;2023-05-24T04:53:52;102322.81;;;10.05;72.95
66945;BME280;53853;51.982;5.928;2023-05-24T04:56:22;102327.81;;;10.10;72.85
66945;BME280;53853;51.982;5.928;2023-05-24T04:58:52;102331.00;;;10.15;72.76
66945;BME280;53853;51.982;5.928;2023-05-24T05:01:25;102335.03;;;10.21;72.59
66945;BME280;53853;51.982;5.928;2023-05-24T05:03:55;102334.91;;;10.22;72.60
66945;BME280;53853;51.982;5.928;2023-05-24T05:06:25;102329.25;;;10.27;72.42
66945;BME280;53853;51.982;5.928;2023-05-24T05:08:54;102327.31;;;10.29;72.19
66945;BME280;53853;51.982;5.928;2023-05-24T05:11:24;102321.69;;;10.33;72.28
66945;BME280;53853;51.982;5.928;2023-05-24T05:13:54;102324.53;;;10.43;72.07
66945;BME280;53853;51.982;5.928;2023-05-24T05:16:27;102327.75;;;10.48;72.10
66945;BME280;53853;51.982;5.928;2023-05-24T05:18:57;102333.78;;;10.50;71.67
66945;BME280;53853;51.982;5.928;2023-05-24T05:21:27;102324.47;;;10.56;71.73
66945;BME280;53853;51.982;5.928;2023-05-24T05:23:58;102330.22;;;10.63;71.74
66945;BME280;53853;51.982;5.928;2023-05-24T05:26:29;102335.22;;;10.67;71.58
66945;BME280;53853;51.982;5.928;2023-05-24T05:29:00;102332.94;;;10.74;71.61
66945;BME280;53853;51.982;5.928;2023-05-24T05:31:32;102332.59;;;10.79;71.48
66945;BME280;53853;51.982;5.928;2023-05-24T05:34:02;102332.28;;;10.83;71.49
66945;BME280;53853;51.982;5.928;2023-05-24T05:36:36;102329.66;;;10.95;71.56
66945;BME280;53853;51.982;5.928;2023-05-24T05:39:08;102328.72;;;11.07;71.42
66945;BME280;53853;51.982;5.928;2023-05-24T05:41:38;102326.94;;;11.19;71.31
66945;BME280;53853;51.982;5.928;2023-05-24T05:44:09;102326.81;;;11.32;71.17
66945;BME280;53853;51.982;5.928;2023-05-24T05:46:42;102334.25;;;11.39;70.61
66945;BME280;53853;51.982;5.928;2023-05-24T05:49:12;102334.25;;;11.39;70.14
66945;BME280;53853;51.982;5.928;2023-05-24T05:51:44;102336.56;;;11.44;70.11
66945;BME280;53853;51.982;5.928;2023-05-24T05:54:14;102329.50;;;11.43;70.15
66945;BME280;53853;51.982;5.928;2023-05-24T05:56:45;102329.28;;;11.46;70.04
66945;BME280;53853;51.982;5.928;2023-05-24T05:59:15;102330.00;;;11.48;69.83
66945;BME280;53853;51.982;5.928;2023-05-24T06:01:47;102330.53;;;11.53;69.78
66945;BME280;53853;51.982;5.928;2023-05-24T06:04:18;102338.28;;;11.56;70.26
66945;BME280;53853;51.982;5.928;2023-05-24T06:06:48;102339.38;;;11.65;69.89
66945;BME280;53853;51.982;5.928;2023-05-24T06:09:18;102339.75;;;11.72;69.95
66945;BME280;53853;51.982;5.928;2023-05-24T06:11:47;102349.81;;;11.79;69.90
66945;BME280;53853;51.982;5.928;2023-05-24T06:14:17;102350.81;;;11.90;69.98
66945;BME280;53853;51.982;5.928;2023-05-24T06:16:50;102344.91;;;11.98;69.15
66945;BME280;53853;51.982;5.928;2023-05-24T06:19:20;102351.09;;;11.98;68.85
66945;BME280;53853;51.982;5.928;2023-05-24T06:21:50;102358.13;;;11.99;68.62
66945;BME280;53853;51.982;5.928;2023-05-24T06:24:20;102366.38;;;12.07;68.67
66945;BME280;53853;51.982;5.928;2023-05-24T06:26:51;102368.47;;;12.15;68.47
66945;BME280;53853;51.982;5.928;2023-05-24T06:29:21;102367.97;;;12.21;68.24
66945;BME280;53853;51.982;5.928;2023-05-24T06:31:54;102364.53;;;12.30;67.01
66945;BME280;53853;51.982;5.928;2023-05-24T06:34:24;102373.19;;;12.34;66.99
66945;BME280;53853;51.982;5.928;2023-05-24T06:36:55;102370.00;;;12.40;67.39
66945;BME280;53853;51.982;5.928;2023-05-24T06:39:25;102371.66;;;12.53;67.27
66945;BME280;53853;51.982;5.928;2023-05-24T06:41:55;102370.91;;;12.62;66.12
66945;BME280;53853;51.982;5.928;2023-05-24T06:44:25;102370.03;;;12.73;65.98
66945;BME280;53853;51.982;5.928;2023-05-24T06:47:03;102364.06;;;12.80;65.34
66945;BME280;53853;51.982;5.928;2023-05-24T06:49:35;102367.78;;;12.89;65.75
66945;BME280;53853;51.982;5.928;2023-05-24T06:52:04;102375.06;;;12.98;65.07
66945;BME280;53853;51.982;5.928;2023-05-24T06:54:35;102369.00;;;12.96;64.79
66945;BME280;53853;51.982;5.928;2023-05-24T06:57:05;102370.41;;;13.00;65.24
66945;BME280;53853;51.982;5.928;2023-05-24T06:59:35;102364.53;;;13.07;64.21
66945;BME280;53853;51.982;5.928;2023-05-24T07:02:08;102365.28;;;13.09;64.30
66945;BME280;53853;51.982;5.928;2023-05-24T07:04:37;102367.72;;;13.12;64.39
66945;BME280;53853;51.982;5.928;2023-05-24T07:07:08;102365.75;;;13.14;64.75
66945;BME280;53853;51.982;5.928;2023-05-24T07:09:40;102377.75;;;13.19;64.72
66945;BME280;53853;51.982;5.928;2023-05-24T07:12:10;102373.25;;;13.20;64.60
66945;BME280;53853;51.982;5.928;2023-05-24T07:14:40;102379.38;;;13.32;65.42
66945;BME280;53853;51.982;5.928;2023-05-24T07:17:12;102376.28;;;13.48;64.58
66945;BME280;53853;51.982;5.928;2023-05-24T07:19:42;102386.63;;;13.52;64.52
66945;BME280;53853;51.982;5.928;2023-05-24T07:22:12;102389.59;;;13.59;63.60
66945;BME280;53853;51.982;5.928;2023-05-24T07:24:42;102378.63;;;13.62;63.37
66945;BME280;53853;51.982;5.928;2023-05-24T07:27:12;102392.63;;;13.66;63.67
66945;BME280;53853;51.982;5.928;2023-05-24T07:29:42;102391.25;;;13.71;63.32
66945;BME280;53853;51.982;5.928;2023-05-24T07:32:14;102372.47;;;13.71;63.06
66945;BME280;53853;51.982;5.928;2023-05-24T07:34:45;102379.56;;;13.72;62.94
66945;BME280;53853;51.982;5.928;2023-05-24T07:37:16;102379.28;;;13.75;63.57
66945;BME280;53853;51.982;5.928;2023-05-24T07:39:46;102378.50;;;13.85;63.40
66945;BME280;53853;51.982;5.928;2023-05-24T07:42:15;102380.78;;;13.89;63.19
66945;BME280;53853;51.982;5.928;2023-05-24T07:44:47;102366.09;;;13.93;62.65
66945;BME280;53853;51.982;5.928;2023-05-24T07:47:19;102373.47;;;14.01;63.23
66945;BME280;53853;51.982;5.928;2023-05-24T07:49:49;102367.31;;;14.10;62.50
66945;BME280;53853;51.982;5.928;2023-05-24T07:52:19;102363.09;;;14.18;62.04
66945;BME280;53853;51.982;5.928;2023-05-24T07:54:50;102361.72;;;14.23;62.15
66945;BME280;53853;51.982;5.928;2023-05-24T07:57:20;102362.75;;;14.42;62.32
66945;BME280;53853;51.982;5.928;2023-05-24T07:59:50;102363.47;;;14.54;61.41
66945;BME280;53853;51.982;5.928;2023-05-24T08:02:23;102368.75;;;14.65;59.08
66945;BME280;53853;51.982;5.928;2023-05-24T08:04:53;102363.50;;;14.73;58.20
66945;BME280;53853;51.982;5.928;2023-05-24T08:07:23;102351.94;;;14.82;57.42
66945;BME280;53853;51.982;5.928;2023-05-24T08:09:54;102356.06;;;14.96;57.63
66945;BME280;53853;51.982;5.928;2023-05-24T08:12:24;102361.13;;;15.09;57.48
66945;BME280;53853;51.982;5.928;2023-05-24T08:14:56;102358.69;;;15.26;57.23
66945;BME280;53853;51.982;5.928;2023-05-24T08:17:28;102355.88;;;15.37;56.65
66945;BME280;53853;51.982;5.928;2023-05-24T08:19:58;102357.97;;;15.53;55.69
66945;BME280;53853;51.982;5.928;2023-05-24T08:22:29;102346.59;;;15.69;56.38
66945;BME280;53853;51.982;5.928;2023-05-24T08:24:59;102353.22;;;15.74;55.47
66945;BME280;53853;51.982;5.928;2023-05-24T08:27:29;102352.97;;;15.78;54.81
66945;BME280;53853;51.982;5.928;2023-05-24T08:30:00;102355.06;;;15.74;53.77
66945;BME280;53853;51.982;5.928;2023-05-24T08:32:32;102354.22;;;15.64;52.16
66945;BME280;53853;51.982;5.928;2023-05-24T08:35:04;102353.28;;;15.55;53.13
66945;BME280;53853;51.982;5.928;2023-05-24T08:37:34;102352.59;;;15.43;53.31
66945;BME280;53853;51.982;5.928;2023-05-24T08:40:05;102352.19;;;15.38;53.86
66945;BME280;53853;51.982;5.928;2023-05-24T08:42:36;102361.41;;;15.35;53.82
66945;BME280;53853;51.982;5.928;2023-05-24T08:45:10;102354.03;;;15.37;54.12
66945;BME280;53853;51.982;5.928;2023-05-24T08:47:43;102363.06;;;15.36;53.75
66945;BME280;53853;51.982;5.928;2023-05-24T08:50:13;102362.53;;;15.33;53.56
66945;BME280;53853;51.982;5.928;2023-05-24T08:52:44;102359.84;;;15.33;53.87
66945;BME280;53853;51.982;5.928;2023-05-24T08:55:15;102354.88;;;15.38;52.93
66945;BME280;53853;51.982;5.928;2023-05-24T08:57:45;102343.84;;;15.41;54.06
66945;BME280;53853;51.982;5.928;2023-05-24T09:00:17;102354.00;;;15.47;53.40
66945;BME280;53853;51.982;5.928;2023-05-24T09:02:50;102353.44;;;15.53;52.83
66945;BME280;53853;51.982;5.928;2023-05-24T09:05:20;102349.47;;;15.57;53.28
66945;BME280;53853;51.982;5.928;2023-05-24T09:07:51;102352.28;;;15.66;51.48
66945;BME280;53853;51.982;5.928;2023-05-24T09:10:22;102351.69;;;15.72;51.51
66945;BME280;53853;51.982;5.928;2023-05-24T09:12:56;102346.31;;;15.72;51.27
66945;BME280;53853;51.982;5.928;2023-05-24T09:15:26;102344.06;;;15.77;52.12
66945;BME280;53853;51.982;5.928;2023-05-24T09:17:59;102355.22;;;15.82;50.75
66945;BME280;53853;51.982;5.928;2023-05-24T09:20:30;102345.88;;;15.86;51.11
66945;BME280;53853;51.982;5.928;2023-05-24T09:23:01;102349.94;;;15.90;51.86
66945;BME280;53853;51.982;5.928;2023-05-24T09:25:33;102344.50;;;16.00;51.75
66945;BME280;53853;51.982;5.928;2023-05-24T09:28:06;102359.59;;;16.11;51.74
66945;BME280;53853;51.982;5.928;2023-05-24T09:30:36;102363.25;;;16.20;49.26
66945;BME280;53853;51.982;5.928;2023-05-24T09:33:09;102351.03;;;16.25;49.59
66945;BME280;53853;51.982;5.928;2023-05-24T09:35:41;102357.81;;;16.29;50.48
66945;BME280;53853;51.982;5.928;2023-05-24T09:38:16;102354.84;;;16.33;50.50
66945;BME280;53853;51.982;5.928;2023-05-24T09:40:46;102357.38;;;16.34;49.13
66945;BME280;53853;51.982;5.928;2023-05-24T09:43:26;102357.66;;;16.31;49.42
66945;BME280;53853;51.982;5.928;2023-05-24T09:45:55;102359.53;;;16.30;49.39
66945;BME280;53853;51.982;5.928;2023-05-24T09:48:30;102355.66;;;16.33;48.53
66945;BME280;53853;51.982;5.928;2023-05-24T09:51:03;102345.63;;;16.35;48.86
66945;BME280;53853;51.982;5.928;2023-05-24T09:53:36;102357.91;;;16.38;48.62
66945;BME280;53853;51.982;5.928;2023-05-24T09:56:08;102358.75;;;16.38;47.51
66945;BME280;53853;51.982;5.928;2023-05-24T09:58:39;102355.91;;;16.40;48.59
66945;BME280;53853;51.982;5.928;2023-05-24T10:01:10;102358.91;;;16.37;48.69
66945;BME280;53853;51.982;5.928;2023-05-24T10:03:55;102351.38;;;16.40;49.04
66945;BME280;53853;51.982;5.928;2023-05-24T10:06:27;102357.31;;;16.44;49.75
66945;BME280;53853;51.982;5.928;2023-05-24T10:08:58;102349.63;;;16.49;50.05
66945;BME280;53853;51.982;5.928;2023-05-24T10:11:31;102356.56;;;16.52;49.21
66945;BME280;53853;51.982;5.928;2023-05-24T10:14:04;102351.16;;;16.52;49.05
66945;BME280;53853;51.982;5.928;2023-05-24T10:16:34;102353.03;;;16.51;48.78
66945;BME280;53853;51.982;5.928;2023-05-24T10:19:07;102355.56;;;16.53;49.28
66945;BME280;53853;51.982;5.928;2023-05-24T10:21:40;102353.63;;;16.45;45.95
66945;BME280;53853;51.982;5.928;2023-05-24T10:24:10;102357.66;;;16.31;47.17
66945;BME280;53853;51.982;5.928;2023-05-24T10:26:44;102364.78;;;16.22;47.32
66945;BME280;53853;51.982;5.928;2023-05-24T10:29:23;102374.31;;;16.17;48.39
66945;BME280;53853;51.982;5.928;2023-05-24T10:31:56;102365.84;;;16.11;48.80
66945;BME280;53853;51.982;5.928;2023-05-24T10:34:29;102363.56;;;16.17;49.17
66945;BME280;53853;51.982;5.928;2023-05-24T10:37:00;102356.13;;;16.28;49.95
66945;BME280;53853;51.982;5.928;2023-05-24T10:39:32;102360.84;;;16.44;49.83
66945;BME280;53853;51.982;5.928;2023-05-24T10:42:04;102359.84;;;16.63;50.45
66945;BME280;53853;51.982;5.928;2023-05-24T10:44:35;102357.66;;;16.77;47.39
66945;BME280;53853;51.982;5.928;2023-05-24T10:47:09;102355.91;;;16.86;47.68
66945;BME280;53853;51.982;5.928;2023-05-24T10:49:48;102354.13;;;16.94;47.95
66945;BME280;53853;51.982;5.928;2023-05-24T10:52:20;102348.81;;;17.02;48.46
66945;BME280;53853;51.982;5.928;2023-05-24T10:55:03;102336.34;;;17.19;47.67
66945;BME280;53853;51.982;5.928;2023-05-24T10:57:33;102340.06;;;17.27;46.48
66945;BME280;53853;51.982;5.928;2023-05-24T11:00:34;102328.72;;;17.41;44.65
66945;BME280;53853;51.982;5.928;2023-05-24T11:03:10;102324.44;;;17.56;46.52
66945;BME280;53853;51.982;5.928;2023-05-24T11:05:53;102321.31;;;17.69;44.77
66945;BME280;53853;51.982;5.928;2023-05-24T11:08:24;102322.50;;;17.67;45.78
66945;BME280;53853;51.982;5.928;2023-05-24T11:11:11;102323.69;;;17.72;45.46
66945;BME280;53853;51.982;5.928;2023-05-24T11:13:42;102330.50;;;17.85;46.08
66945;BME280;53853;51.982;5.928;2023-05-24T11:16:32;102330.91;;;17.98;44.72
66945;BME280;53853;51.982;5.928;2023-05-24T11:19:11;102327.59;;;18.13;45.90
66945;BME280;53853;51.982;5.928;2023-05-24T11:21:47;102333.69;;;18.23;44.81
66945;BME280;53853;51.982;5.928;2023-05-24T11:24:18;102333.63;;;18.06;43.78
66945;BME280;53853;51.982;5.928;2023-05-24T11:26:49;102327.72;;;18.03;44.33
66945;BME280;53853;51.982;5.928;2023-05-24T11:29:20;102330.78;;;18.08;45.16
66945;BME280;53853;51.982;5.928;2023-05-24T11:31:51;102331.97;;;18.14;46.17
66945;BME280;53853;51.982;5.928;2023-05-24T11:34:23;102325.94;;;18.20;44.31
66945;BME280;53853;51.982;5.928;2023-05-24T11:36:56;102320.03;;;18.16;44.10
66945;BME280;53853;51.982;5.928;2023-05-24T11:39:30;102338.38;;;18.13;43.80
66945;BME280;53853;51.982;5.928;2023-05-24T11:42:04;102325.88;;;18.03;44.00
66945;BME280;53853;51.982;5.928;2023-05-24T11:44:35;102321.88;;;17.81;43.78
66945;BME280;53853;51.982;5.928;2023-05-24T11:47:07;102324.25;;;17.84;44.94
66945;BME280;53853;51.982;5.928;2023-05-24T11:49:37;102324.69;;;17.98;44.49
66945;BME280;53853;51.982;5.928;2023-05-24T11:52:10;102328.22;;;18.06;45.16
66945;BME280;53853;51.982;5.928;2023-05-24T11:54:40;102324.56;;;18.16;45.38
66945;BME280;53853;51.982;5.928;2023-05-24T11:57:11;102319.53;;;18.21;43.79
66945;BME280;53853;51.982;5.928;2023-05-24T11:59:41;102327.50;;;18.31;44.95
66945;BME280;53853;51.982;5.928;2023-05-24T12:02:11;102324.63;;;18.40;45.46
66945;BME280;53853;51.982;5.928;2023-05-24T12:04:41;102320.97;;;18.58;44.18
66945;BME280;53853;51.982;5.928;2023-05-24T12:07:14;102316.56;;;18.65;43.44
66945;BME280;53853;51.982;5.928;2023-05-24T12:09:47;102320.63;;;18.53;43.67
66945;BME280;53853;51.982;5.928;2023-05-24T12:12:40;102316.22;;;18.52;43.93
66945;BME280;53853;51.982;5.928;2023-05-24T12:15:11;102314.84;;;18.47;43.69
66945;BME280;53853;51.982;5.928;2023-05-24T12:17:41;102311.81;;;18.51;43.85
66945;BME280;53853;51.982;5.928;2023-05-24T12:20:15;102318.75;;;18.53;43.56
66945;BME280;53853;51.982;5.928;2023-05-24T12:22:53;102314.53;;;18.51;43.63
66945;BME280;53853;51.982;5.928;2023-05-24T12:25:23;102318.91;;;18.52;43.22
66945;BME280;53853;51.982;5.928;2023-05-24T12:27:54;102310.47;;;18.46;44.01
66945;BME280;53853;51.982;5.928;2023-05-24T12:30:25;102313.00;;;18.40;43.68
66945;BME280;53853;51.982;5.928;2023-05-24T12:32:56;102313.84;;;18.32;44.33
66945;BME280;53853;51.982;5.928;2023-05-24T12:35:26;102301.50;;;18.21;45.25
66945;BME280;53853;51.982;5.928;2023-05-24T12:38:00;102308.38;;;18.16;45.03
66945;BME280;53853;51.982;5.928;2023-05-24T12:40:32;102301.50;;;18.21;44.91
66945;BME280;53853;51.982;5.928;2023-05-24T12:43:04;102297.97;;;18.29;45.72
66945;BME280;53853;51.982;5.928;2023-05-24T12:45:33;102293.59;;;18.44;45.22
66945;BME280;53853;51.982;5.928;2023-05-24T12:48:03;102301.56;;;18.54;45.32
66945;BME280;53853;51.982;5.928;2023-05-24T12:50:33;102300.34;;;18.57;43.37
66945;BME280;53853;51.982;5.928;2023-05-24T12:53:06;102298.53;;;18.57;44.40
66945;BME280;53853;51.982;5.928;2023-05-24T12:55:35;102315.22;;;18.53;44.03
66945;BME280;53853;51.982;5.928;2023-05-24T12:58:05;102302.16;;;18.32;44.03
66945;BME280;53853;51.982;5.928;2023-05-24T13:00:35;102297.47;;;18.34;44.27
66945;BME280;53853;51.982;5.928;2023-05-24T13:03:05;102295.28;;;18.45;44.64
66945;BME280;53853;51.982;5.928;2023-05-24T13:05:35;102293.13;;;18.65;45.16
66945;BME280;53853;51.982;5.928;2023-05-24T13:08:07;102308.19;;;18.85;45.02
66945;BME280;53853;51.982;5.928;2023-05-24T13:10:37;102298.22;;;18.85;43.04
66945;BME280;53853;51.982;5.928;2023-05-24T13:13:07;102297.84;;;18.80;42.91
66945;BME280;53853;51.982;5.928;2023-05-24T13:15:37;102307.78;;;18.63;42.45
66945;BME280;53853;51.982;5.928;2023-05-24T13:18:10;102315.22;;;18.53;43.51
66945;BME280;53853;51.982;5.928;2023-05-24T13:20:40;102307.28;;;18.43;43.71
66945;BME280;53853;51.982;5.928;2023-05-24T13:23:12;102307.94;;;18.37;41.87